Time;durP1;ratioP1;P1;durP2;ratioP2;P2;SDS_P1;SDS_P2;PMS_P1;PMS_P2;Temp;Humidity;BMP_temperature;BMP_pressure;BME280_temperature;BME280_humidity;BME280_pressure;Samples;Min_cycle;Max_cycle;Signal;HPM_P1;HPM_P2
2022/06/06 00:00:43;;;;;;;14.50;6.03;;;15.60;99.90;;;;;;5035024;28;20461;-70
2022/06/06 00:03:09;;;;;;;11.75;6.22;;;15.60;99.90;;;;;;5034778;28;20370;-71
2022/06/06 00:05:36;;;;;;;13.80;6.43;;;15.60;99.90;;;;;;5035005;28;20068;-71
2022/06/06 00:08:03;;;;;;;11.23;6.72;;;15.60;99.90;;;;;;5034830;28;20112;-71
2022/06/06 00:10:29;;;;;;;12.68;7.20;;;15.50;99.90;;;;;;5034717;28;20540;-71
2022/06/06 00:12:54;;;;;;;12.38;6.97;;;15.50;99.90;;;;;;5035136;28;20121;-71
2022/06/06 00:15:20;;;;;;;14.95;5.93;;;15.50;99.90;;;;;;5034502;28;20057;-71
2022/06/06 00:17:46;;;;;;;9.80;6.97;;;15.50;99.90;;;;;;5034796;28;20036;-71
2022/06/06 00:20:11;;;;;;;16.55;7.00;;;15.50;99.90;;;;;;5034657;28;20108;-71
2022/06/06 00:22:37;;;;;;;13.05;6.68;;;15.50;99.90;;;;;;5034428;28;20429;-71
2022/06/06 00:25:03;;;;;;;15.68;7.88;;;15.30;99.90;;;;;;5034739;28;20091;-71
2022/06/06 00:27:29;;;;;;;14.73;7.22;;;15.40;99.90;;;;;;5033319;28;20037;-71
2022/06/06 00:29:54;;;;;;;16.35;7.65;;;15.40;99.90;;;;;;5034680;28;20033;-71
2022/06/06 00:35:06;;;;;;;21.60;8.35;;;15.30;99.90;;;;;;5034306;28;20036;-72
2022/06/06 00:37:34;;;;;;;17.30;8.32;;;15.20;99.90;;;;;;5033977;28;20021;-73
2022/06/06 00:40:03;;;;;;;15.90;8.10;;;15.10;99.90;;;;;;5033735;28;20505;-72
2022/06/06 00:42:35;;;;;;;24.70;9.07;;;15.10;99.90;;;;;;5034276;28;20080;-72
2022/06/06 00:45:20;;;;;;;17.13;9.00;;;14.90;99.90;;;;;;5033950;28;20056;-72
2022/06/06 00:47:50;;;;;;;14.95;9.75;;;15.00;99.90;;;;;;5033881;28;20049;-72
2022/06/06 00:50:24;;;;;;;17.38;9.75;;;14.90;99.90;;;;;;5034258;28;20490;-72
2022/06/06 00:52:52;;;;;;;19.00;10.30;;;14.90;99.90;;;;;;5034047;28;20039;-72
2022/06/06 00:55:24;;;;;;;14.45;9.82;;;14.90;99.90;;;;;;5034029;28;20104;-72
2022/06/06 00:57:55;;;;;;;34.97;9.93;;;14.90;99.90;;;;;;5033755;28;20432;-72
2022/06/06 01:00:22;;;;;;;19.95;10.98;;;14.70;99.90;;;;;;5033706;28;20111;-72
2022/06/06 01:02:51;;;;;;;16.50;9.00;;;14.70;99.90;;;;;;5033860;28;20021;-72
2022/06/06 01:05:19;;;;;;;18.58;10.10;;;14.70;99.90;;;;;;5033643;28;20433;-73
2022/06/06 01:07:44;;;;;;;23.10;10.70;;;14.70;99.90;;;;;;5033885;28;20017;-72
2022/06/06 01:10:10;;;;;;;17.85;10.50;;;14.70;99.90;;;;;;5034048;28;20028;-73
2022/06/06 01:12:38;;;;;;;18.73;11.82;;;14.60;99.90;;;;;;5034147;28;20061;-72
2022/06/06 01:15:08;;;;;;;17.83;11.70;;;14.60;99.90;;;;;;5033966;28;20021;-72
2022/06/06 01:17:44;;;;;;;25.45;12.02;;;14.60;99.90;;;;;;5033595;28;20033;-72
2022/06/06 01:20:30;;;;;;;33.70;10.68;;;14.60;99.90;;;;;;5033951;28;20061;-73
2022/06/06 01:23:26;;;;;;;21.45;11.38;;;14.60;99.90;;;;;;5033761;28;20021;-72
2022/06/06 01:25:54;;;;;;;18.75;10.35;;;14.60;99.90;;;;;;5033876;28;20473;-72
2022/06/06 01:28:44;;;;;;;18.88;11.93;;;14.50;99.90;;;;;;5033483;28;20423;-74
2022/06/06 01:31:25;;;;;;;20.55;12.80;;;14.50;99.90;;;;;;5033842;28;20044;-73
2022/06/06 01:33:59;;;;;;;22.23;12.18;;;14.50;99.90;;;;;;5033485;28;20060;-73
2022/06/06 01:36:29;;;;;;;22.50;12.13;;;14.50;99.90;;;;;;5033490;28;20032;-73
2022/06/06 01:39:01;;;;;;;24.50;13.65;;;14.50;99.90;;;;;;5033627;28;20428;-75
2022/06/06 01:41:59;;;;;;;23.45;13.18;;;14.50;99.90;;;;;;5033861;28;20036;-74
2022/06/06 01:44:44;;;;;;;18.25;12.52;;;14.50;99.90;;;;;;5014588;28;20033;-73
2022/06/06 01:47:16;;;;;;;27.60;12.93;;;14.50;99.90;;;;;;5033207;28;20048;-74
2022/06/06 01:49:43;;;;;;;22.85;12.20;;;14.50;99.90;;;;;;5033758;28;20084;-74
2022/06/06 01:52:12;;;;;;;16.80;11.75;;;14.50;99.90;;;;;;5033431;28;20611;-74
2022/06/06 01:54:39;;;;;;;22.75;12.57;;;14.50;99.90;;;;;;5033696;28;20033;-74
2022/06/06 01:57:07;;;;;;;27.67;13.55;;;14.50;99.90;;;;;;5033676;28;20155;-74
2022/06/06 01:59:33;;;;;;;18.83;12.02;;;14.50;99.90;;;;;;5033378;28;20100;-74
2022/06/06 02:01:59;;;;;;;21.52;13.05;;;14.50;99.90;;;;;;5033396;28;20531;-74
2022/06/06 02:04:25;;;;;;;25.38;13.70;;;14.60;99.90;;;;;;5033129;28;20030;-74
2022/06/06 02:06:51;;;;;;;20.55;12.32;;;14.50;99.90;;;;;;5033196;28;20093;-73
2022/06/06 02:09:17;;;;;;;19.15;13.25;;;14.50;99.90;;;;;;5033394;28;20013;-74
2022/06/06 02:11:43;;;;;;;24.13;13.40;;;14.60;99.90;;;;;;5033193;28;20079;-74
2022/06/06 02:14:09;;;;;;;21.55;14.07;;;14.60;99.90;;;;;;5034632;28;20501;-73
2022/06/06 02:16:35;;;;;;;23.83;14.38;;;14.60;99.90;;;;;;5037152;28;20068;-73
2022/06/06 02:19:02;;;;;;;25.55;14.68;;;14.60;99.90;;;;;;5037054;28;20026;-73
2022/06/06 02:21:28;;;;;;;30.15;15.68;;;14.60;99.90;;;;;;5037097;28;20454;-73
2022/06/06 02:23:53;;;;;;;21.45;15.68;;;14.60;99.90;;;;;;5036585;28;20061;-73
2022/06/06 02:26:19;;;;;;;22.45;16.27;;;14.70;99.90;;;;;;5036783;28;20036;-73
2022/06/06 02:28:44;;;;;;;26.67;15.80;;;14.70;99.90;;;;;;5037043;28;20066;-73
2022/06/06 02:31:10;;;;;;;23.95;15.98;;;14.60;99.90;;;;;;5036612;28;20117;-73
2022/06/06 02:33:36;;;;;;;22.27;15.73;;;14.70;99.90;;;;;;5036598;28;20069;-73
2022/06/06 02:36:03;;;;;;;26.02;17.13;;;14.80;99.90;;;;;;5036484;28;20082;-74
2022/06/06 02:38:29;;;;;;;29.50;16.83;;;14.80;99.90;;;;;;5036633;28;20405;-74
2022/06/06 02:41:07;;;;;;;24.85;15.82;;;14.80;99.90;;;;;;5036479;28;20021;-74
2022/06/06 02:43:34;;;;;;;22.38;16.67;;;14.80;99.90;;;;;;5036564;28;20025;-73
2022/06/06 02:46:01;;;;;;;28.90;15.55;;;14.80;99.90;;;;;;5036531;28;20374;-73
2022/06/06 02:48:27;;;;;;;30.23;15.65;;;14.80;99.90;;;;;;5036222;28;20018;-73
2022/06/06 02:50:53;;;;;;;21.52;14.70;;;14.80;99.90;;;;;;5036269;28;20033;-74
2022/06/06 02:53:18;;;;;;;24.73;15.57;;;14.80;99.90;;;;;;5035960;28;20033;-74
2022/06/06 02:55:44;;;;;;;22.27;15.52;;;14.80;99.90;;;;;;5036105;28;20036;-73
2022/06/06 02:58:10;;;;;;;30.00;17.17;;;14.80;99.90;;;;;;5036004;28;20029;-73
2022/06/06 03:00:41;;;;;;;24.85;14.65;;;14.80;99.90;;;;;;5034640;28;20040;-73
2022/06/06 03:03:07;;;;;;;23.33;15.30;;;14.80;99.90;;;;;;5036287;28;20519;-73
2022/06/06 03:05:57;;;;;;;29.45;16.10;;;14.80;99.90;;;;;;5036285;28;20029;-73
2022/06/06 03:08:44;;;;;;;29.85;17.40;;;14.80;99.90;;;;;;5034633;28;20458;-73
2022/06/06 03:11:37;;;;;;;29.75;17.35;;;14.80;99.90;;;;;;5036364;28;20512;-73
2022/06/06 03:14:24;;;;;;;21.45;15.25;;;14.80;99.90;;;;;;5035812;28;20076;-74
2022/06/06 03:23:14;;;;;;;28.83;16.17;;;14.70;99.90;;;;;;5035950;28;20063;-74
2022/06/06 03:26:01;;;;;;;21.50;16.48;;;14.70;99.90;;;;;;5035087;28;20416;-74
2022/06/06 03:29:04;;;;;;;27.50;16.65;;;14.70;99.90;;;;;;5035932;28;20021;-74
2022/06/06 03:31:38;;;;;;;25.20;16.83;;;14.70;99.90;;;;;;5035610;28;20099;-74
2022/06/06 03:34:23;;;;;;;25.85;16.10;;;14.70;99.90;;;;;;5035343;28;20481;-74
2022/06/06 03:36:57;;;;;;;23.88;15.27;;;14.70;99.90;;;;;;5035776;28;20040;-73
2022/06/06 03:40:01;;;;;;;33.05;17.17;;;14.60;99.90;;;;;;5035538;28;20028;-74
2022/06/06 03:42:33;;;;;;;26.98;16.35;;;14.60;99.90;;;;;;5035711;28;20037;-74
2022/06/06 03:45:13;;;;;;;25.70;16.00;;;14.60;99.90;;;;;;5035341;28;20028;-74
2022/06/06 03:48:06;;;;;;;33.13;16.33;;;14.60;99.90;;;;;;5035824;28;20025;-74
2022/06/06 03:51:03;;;;;;;29.13;17.35;;;14.60;99.90;;;;;;5035350;28;20033;-74
2022/06/06 03:54:04;;;;;;;23.95;15.50;;;14.60;99.90;;;;;;5035418;28;20030;-74
2022/06/06 03:56:39;;;;;;;26.52;15.27;;;14.60;99.90;;;;;;5035199;28;20029;-74
2022/06/06 03:59:07;;;;;;;24.23;15.50;;;14.60;99.90;;;;;;5035069;28;20029;-74
2022/06/06 04:01:37;;;;;;;24.35;14.18;;;14.70;99.90;;;;;;5035513;28;20095;-74
2022/06/06 04:04:04;;;;;;;20.77;14.52;;;14.60;99.90;;;;;;5034819;28;20112;-74
2022/06/06 04:06:31;;;;;;;27.13;15.38;;;14.60;99.90;;;;;;5035043;28;20363;-74
2022/06/06 04:08:57;;;;;;;23.40;15.38;;;14.50;99.90;;;;;;5034807;28;20510;-74
2022/06/06 04:11:28;;;;;;;21.58;14.40;;;14.60;99.90;;;;;;5035105;28;20061;-74
2022/06/06 04:14:09;;;;;;;24.20;14.38;;;14.60;99.90;;;;;;5034999;28;20025;-74
2022/06/06 04:17:20;;;;;;;27.38;14.20;;;14.60;99.90;;;;;;5034987;28;20093;-74
2022/06/06 04:20:24;;;;;;;22.60;13.63;;;14.60;99.90;;;;;;5026218;28;20073;-74
2022/06/06 04:23:05;;;;;;;22.53;14.07;;;14.70;99.90;;;;;;5033962;28;20042;-73
2022/06/06 04:25:51;;;;;;;25.83;13.45;;;14.70;99.90;;;;;;5034460;28;20280;-73
2022/06/06 04:28:38;;;;;;;33.22;14.18;;;14.70;99.90;;;;;;5034683;28;20035;-73
2022/06/06 04:31:18;;;;;;;23.23;13.85;;;14.70;99.90;;;;;;5034612;28;20033;-73
2022/06/06 04:34:03;;;;;;;25.17;14.57;;;14.80;99.90;;;;;;5034445;28;20030;-74
2022/06/06 04:36:34;;;;;;;28.17;15.00;;;14.80;99.90;;;;;;5034621;28;20060;-73
2022/06/06 04:38:59;;;;;;;32.85;15.48;;;14.80;99.90;;;;;;5034346;28;20497;-74
2022/06/06 04:42:07;;;;;;;23.95;13.82;;;14.80;99.90;;;;;;5034516;28;20116;-74
2022/06/06 04:44:50;;;;;;;19.38;13.85;;;14.80;99.90;;;;;;5012407;28;20482;-74
2022/06/06 04:47:27;;;;;;;25.42;14.48;;;14.80;99.90;;;;;;5012493;28;20033;-74
2022/06/06 04:49:56;;;;;;;25.50;13.85;;;14.80;99.90;;;;;;5027584;28;20025;-73
2022/06/06 04:52:22;;;;;;;33.25;13.13;;;14.80;99.90;;;;;;5034104;28;20025;-73
2022/06/06 04:54:48;;;;;;;19.33;13.13;;;14.90;99.90;;;;;;5033965;28;20079;-73
2022/06/06 04:57:17;;;;;;;23.23;14.85;;;14.90;99.90;;;;;;5034037;28;20029;-73
2022/06/06 04:59:44;;;;;;;23.17;13.95;;;14.90;99.90;;;;;;5034219;28;20029;-74
2022/06/06 05:02:10;;;;;;;25.27;14.55;;;14.80;99.90;;;;;;5034061;28;20057;-74
2022/06/06 05:04:35;;;;;;;26.25;14.52;;;14.90;99.90;;;;;;5034004;28;20515;-74
2022/06/06 05:07:38;;;;;;;23.27;14.75;;;14.90;99.90;;;;;;5033907;28;20417;-74
2022/06/06 05:10:16;;;;;;;23.08;15.00;;;15.00;99.90;;;;;;5033754;28;20079;-74
2022/06/06 05:13:11;;;;;;;26.40;15.00;;;15.00;99.90;;;;;;5033945;28;20076;-74
2022/06/06 05:15:52;;;;;;;21.92;13.85;;;15.00;99.90;;;;;;5034228;28;20129;-74
2022/06/06 05:18:41;;;;;;;23.25;14.35;;;15.00;99.90;;;;;;5034211;28;20057;-74
2022/06/06 05:21:06;;;;;;;22.98;14.80;;;15.10;99.90;;;;;;5033925;28;20030;-74
2022/06/06 05:23:34;;;;;;;27.02;16.67;;;15.10;99.90;;;;;;5033533;28;20025;-74
2022/06/06 05:26:51;;;;;;;22.05;15.85;;;15.10;99.90;;;;;;5033861;28;20048;-74
2022/06/06 05:29:42;;;;;;;20.27;14.52;;;15.20;99.90;;;;;;5011951;28;20022;-72
2022/06/06 05:32:28;;;;;;;21.75;14.88;;;15.20;99.90;;;;;;5011881;28;20526;-71
2022/06/06 05:35:05;;;;;;;18.15;13.18;;;15.30;99.90;;;;;;5030502;28;20034;-72
2022/06/06 05:37:38;;;;;;;16.00;10.85;;;15.30;99.90;;;;;;5033883;28;20082;-71
2022/06/06 05:40:16;;;;;;;;;;;15.40;99.90;;;;;;5034222;28;20477;-71
2022/06/06 05:43:12;;;;;;;12.32;7.05;;;15.40;99.90;;;;;;5033521;28;19905;-71
2022/06/06 05:45:55;;;;;;;9.70;6.05;;;15.40;99.90;;;;;;5033620;28;20478;-71
2022/06/06 05:48:44;;;;;;;9.40;4.47;;;15.40;99.90;;;;;;5032547;28;20027;-71
2022/06/06 05:51:20;;;;;;;5.28;3.97;;;15.40;99.90;;;;;;5037361;28;20036;-71
2022/06/06 05:54:17;;;;;;;6.55;3.15;;;15.40;99.90;;;;;;5037651;28;20040;-71
2022/06/06 05:56:51;;;;;;;3.75;3.05;;;15.40;99.90;;;;;;5037636;28;20092;-71
2022/06/06 05:59:36;;;;;;;3.67;2.47;;;15.40;99.90;;;;;;5037370;28;20056;-71
2022/06/06 06:02:01;;;;;;;4.80;2.75;;;15.30;99.90;;;;;;5037436;28;20106;-71
2022/06/06 06:04:45;;;;;;;4.05;2.72;;;15.30;99.90;;;;;;5037442;28;20057;-70
2022/06/06 06:07:28;;;;;;;4.38;3.00;;;15.20;99.90;;;;;;5037046;28;20021;-71
2022/06/06 06:10:11;;;;;;;6.05;3.35;;;15.20;99.90;;;;;;5037334;28;20032;-71
2022/06/06 06:13:09;;;;;;;7.80;3.15;;;15.20;99.90;;;;;;5036882;28;20033;-71
2022/06/06 06:15:43;;;;;;;11.45;4.18;;;15.10;99.90;;;;;;5024979;28;20034;-71
2022/06/06 06:18:31;;;;;;;14.25;3.47;;;15.10;99.90;;;;;;5035629;28;20033;-71
2022/06/06 06:21:04;;;;;;;7.93;3.67;;;15.10;99.90;;;;;;5036592;28;20076;-71
2022/06/06 06:23:34;;;;;;;7.95;3.80;;;15.10;99.90;;;;;;5036963;28;20114;-71
2022/06/06 06:26:03;;;;;;;12.23;4.15;;;15.20;99.90;;;;;;5037860;28;20445;-74
2022/06/06 06:28:33;;;;;;;9.90;5.43;;;15.10;99.90;;;;;;5036881;28;20018;-73
2022/06/06 06:31:19;;;;;;;7.25;3.38;;;15.10;99.90;;;;;;5036825;28;20021;-74
2022/06/06 06:33:53;;;;;;;7.50;2.97;;;15.10;99.90;;;;;;5036807;28;20470;-73
2022/06/06 06:36:36;;;;;;;13.88;4.32;;;15.10;99.90;;;;;;5037221;28;20382;-74
2022/06/06 06:39:39;;;;;;;8.70;3.60;;;15.10;99.90;;;;;;5036899;28;20032;-74
2022/06/06 06:42:52;;;;;;;8.30;4.07;;;15.10;99.90;;;;;;5036963;28;20037;-73
2022/06/06 06:45:29;;;;;;;13.65;5.57;;;15.10;99.90;;;;;;5020032;28;20049;-74
2022/06/06 06:48:03;;;;;;;7.18;3.40;;;15.10;99.90;;;;;;5036595;28;20524;-73
2022/06/06 06:50:34;;;;;;;10.00;3.38;;;15.20;99.90;;;;;;5036596;28;20045;-73
2022/06/06 06:53:35;;;;;;;10.57;3.30;;;15.10;99.90;;;;;;5036659;28;20025;-74
2022/06/06 06:56:03;;;;;;;11.93;3.55;;;15.20;99.90;;;;;;5024761;28;20113;-74
2022/06/06 06:58:54;;;;;;;10.85;3.60;;;15.10;99.90;;;;;;5035057;28;20022;-74
2022/06/06 07:08:32;;;;;;;4.55;2.67;;;15.10;99.90;;;;;;5035969;28;20029;-74
2022/06/06 07:10:37;;;;;;;7.32;2.50;;;15.30;99.90;;;;;;5037276;28;20036;-74
2022/06/06 07:13:30;;;;;;;14.15;2.90;;;15.40;99.90;;;;;;5036119;28;20482;-74
2022/06/06 07:16:22;;;;;;;9.85;3.15;;;15.60;99.90;;;;;;5036220;28;20481;-74
2022/06/06 07:19:01;;;;;;;8.93;2.83;;;15.80;99.90;;;;;;5036126;28;20025;-74
2022/06/06 07:21:30;;;;;;;5.43;2.90;;;16.10;99.90;;;;;;5035749;28;20039;-74
2022/06/06 07:24:00;;;;;;;8.02;2.67;;;16.40;99.90;;;;;;5035753;28;20039;-74
2022/06/06 07:26:27;;;;;;;4.78;3.08;;;16.70;99.90;;;;;;5035957;28;20031;-74
2022/06/06 07:28:52;;;;;;;8.05;2.78;;;16.80;99.90;;;;;;5035768;28;20032;-74
2022/06/06 07:31:40;;;;;;;2.60;2.30;;;16.80;99.90;;;;;;5036213;28;20030;-75
2022/06/06 07:34:08;;;;;;;6.00;2.40;;;16.80;99.90;;;;;;5035772;28;20035;-74
2022/06/06 07:36:46;;;;;;;3.28;2.30;;;16.60;99.90;;;;;;5035612;28;20032;-74
2022/06/06 07:39:51;;;;;;;3.45;1.80;;;16.60;99.90;;;;;;5035749;28;20029;-74
2022/06/06 07:42:29;;;;;;;7.70;2.10;;;16.60;99.90;;;;;;5034831;28;20128;-75
2022/06/06 07:45:16;;;;;;;10.30;3.28;;;16.50;99.90;;;;;;5035732;28;20465;-74
2022/06/06 07:48:26;;;;;;;5.55;2.22;;;16.40;99.90;;;;;;5035433;28;20160;-74
2022/06/06 07:51:08;;;;;;;3.45;1.75;;;16.30;99.90;;;;;;5035374;28;20063;-74
2022/06/06 07:53:43;;;;;;;1.77;1.10;;;16.20;99.90;;;;;;5035442;28;20026;-74
2022/06/06 07:56:44;;;;;;;3.78;1.50;;;16.20;99.90;;;;;;5035472;28;20032;-74
2022/06/06 07:59:36;;;;;;;8.30;1.70;;;16.20;99.90;;;;;;5035149;28;20022;-74
2022/06/06 08:02:14;;;;;;;5.10;1.40;;;16.30;99.90;;;;;;5035668;28;20037;-74
2022/06/06 08:04:54;;;;;;;5.15;1.38;;;16.40;99.90;;;;;;5035117;28;20555;-74
2022/06/06 08:07:32;;;;;;;6.50;1.80;;;16.40;99.90;;;;;;5033486;28;20037;-73
2022/06/06 08:10:33;;;;;;;1.58;1.20;;;16.40;99.90;;;;;;5035262;28;20109;-72
2022/06/06 08:13:19;;;;;;;11.68;2.53;;;16.30;99.90;;;;;;5034415;28;20037;-72
2022/06/06 08:16:03;;;;;;;6.72;2.00;;;16.30;99.90;;;;;;5034791;28;20029;-72
2022/06/06 08:18:47;;;;;;;6.95;2.83;;;16.30;99.90;;;;;;5035063;28;20029;-72
2022/06/06 08:21:19;;;;;;;;;;;16.30;99.90;;;;;;5035233;28;20057;-73
2022/06/06 08:23:45;;;;;;;4.72;3.13;;;16.30;99.90;;;;;;5034459;28;19913;-73
2022/06/06 08:26:13;;;;;;;7.80;4.40;;;16.40;99.90;;;;;;5034799;28;20084;-72
2022/06/06 08:28:40;;;;;;;10.13;4.72;;;16.30;99.90;;;;;;5034707;28;20060;-73
2022/06/06 08:31:07;;;;;;;11.73;4.78;;;16.30;99.90;;;;;;5034468;28;20036;-72
2022/06/06 08:33:33;;;;;;;9.60;4.57;;;16.30;99.90;;;;;;5034250;28;20041;-73
2022/06/06 08:36:11;;;;;;;8.32;4.40;;;16.40;99.90;;;;;;5033093;28;20022;-73
2022/06/06 08:39:08;;;;;;;13.30;5.10;;;16.50;99.90;;;;;;5033044;28;20511;-73
2022/06/06 08:42:06;;;;;;;7.45;4.32;;;16.70;99.90;;;;;;5034307;28;20088;-72
2022/06/06 08:45:08;;;;;;;8.35;3.90;;;16.80;99.90;;;;;;5022394;28;20500;-73
2022/06/06 08:47:41;;;;;;;12.38;4.60;;;16.90;99.90;;;;;;5034397;28;20433;-73
2022/06/06 08:50:44;;;;;;;9.90;2.95;;;17.00;99.90;;;;;;5032899;28;20490;-73
2022/06/06 08:53:48;;;;;;;5.45;3.45;;;16.90;99.90;;;;;;5034024;28;20037;-73
2022/06/06 08:56:51;;;;;;;5.97;2.93;;;16.80;99.90;;;;;;5034119;28;20029;-73
2022/06/06 08:59:51;;;;;;;6.75;3.75;;;16.60;99.90;;;;;;5014235;28;20033;-73
2022/06/06 09:02:43;;;;;;;10.18;3.83;;;16.40;99.90;;;;;;5014748;28;20045;-73
2022/06/06 09:05:46;;;;;;;6.40;3.17;;;16.20;99.90;;;;;;5014263;28;20494;-72
2022/06/06 09:08:53;;;;;;;11.05;3.45;;;16.00;99.90;;;;;;5018477;28;20029;-72
2022/06/06 09:11:55;;;;;;;5.90;3.40;;;15.90;99.90;;;;;;5012068;28;20113;-72
2022/06/06 09:14:39;;;;;;;6.30;3.70;;;15.80;99.90;;;;;;5034058;28;20022;-72
2022/06/06 09:17:25;;;;;;;9.07;4.20;;;15.70;99.90;;;;;;5034260;28;20104;-72
2022/06/06 09:20:18;;;;;;;9.23;4.00;;;15.80;99.90;;;;;;5034014;28;20362;-72
2022/06/06 09:22:52;;;;;;;10.63;4.38;;;15.90;99.90;;;;;;5034642;28;20104;-72
2022/06/06 09:25:36;;;;;;;8.30;4.55;;;16.20;99.90;;;;;;5037934;28;20033;-72
2022/06/06 09:28:54;;;;;;;9.35;4.47;;;16.20;99.90;;;;;;5038394;28;20100;-74
2022/06/06 09:31:40;;;;;;;10.48;5.25;;;16.10;99.90;;;;;;5015894;28;20446;-73
2022/06/06 09:34:34;;;;;;;9.50;5.00;;;16.00;99.90;;;;;;5016030;28;20493;-73
2022/06/06 09:37:06;;;;;;;12.68;4.90;;;15.90;99.90;;;;;;5015564;28;20053;-74
2022/06/06 09:39:33;;;;;;;14.25;5.75;;;15.70;99.90;;;;;;5037383;28;20101;-73
2022/06/06 09:42:25;;;;;;;9.23;5.13;;;15.60;99.90;;;;;;5038033;28;20033;-73
2022/06/06 09:45:10;;;;;;;12.18;5.40;;;15.60;99.90;;;;;;5012159;28;20394;-74
2022/06/06 09:47:56;;;;;;;20.33;5.68;;;15.60;99.90;;;;;;5018063;28;20030;-74
2022/06/06 09:50:39;;;;;;;11.95;4.93;;;15.50;99.90;;;;;;5034302;28;20475;-74
2022/06/06 09:53:08;;;;;;;17.08;5.93;;;15.60;99.90;;;;;;5036264;28;20071;-73
2022/06/06 09:59:07;;;;;;;8.48;4.72;;;15.50;99.90;;;;;;5037502;28;20067;-73
2022/06/06 10:02:20;;;;;;;8.98;4.38;;;15.60;99.90;;;;;;5037242;28;20033;-73
2022/06/06 10:04:54;;;;;;;11.80;4.35;;;15.70;99.90;;;;;;5015647;28;20033;-73
2022/06/06 10:07:52;;;;;;;17.90;4.55;;;15.80;99.90;;;;;;4998831;28;20025;-74
2022/06/06 10:10:53;;;;;;;13.38;6.30;;;15.80;99.90;;;;;;5025778;28;20033;-73
2022/06/06 10:13:52;;;;;;;7.00;4.75;;;15.70;99.90;;;;;;5032844;28;20042;-74
2022/06/06 10:16:30;;;;;;;14.43;5.47;;;15.70;99.90;;;;;;5037026;28;20039;-74
2022/06/06 10:19:10;;;;;;;9.38;6.07;;;15.70;99.90;;;;;;5037038;28;20420;-74
2022/06/06 10:22:05;;;;;;;14.35;6.28;;;15.60;99.90;;;;;;5037093;28;20029;-73
2022/06/06 10:25:02;;;;;;;13.60;6.60;;;15.60;99.90;;;;;;5025505;28;20045;-73
2022/06/06 10:28:05;;;;;;;10.82;5.88;;;15.80;99.90;;;;;;5037371;28;20021;-73
2022/06/06 10:30:46;;;;;;;9.83;5.20;;;16.00;99.90;;;;;;5036739;28;20451;-74
2022/06/06 10:33:34;;;;;;;10.23;4.88;;;16.10;99.90;;;;;;5036912;28;20268;-73
2022/06/06 10:36:20;;;;;;;7.35;4.22;;;16.30;99.90;;;;;;5034674;28;20448;-73
2022/06/06 10:39:15;;;;;;;8.77;4.45;;;16.50;99.90;;;;;;5036639;28;20060;-73
2022/06/06 10:41:57;;;;;;;15.48;3.88;;;16.90;99.90;;;;;;5036773;28;20026;-73
2022/06/06 10:45:02;;;;;;;9.82;5.03;;;17.10;99.90;;;;;;5036488;28;20022;-73
2022/06/06 10:47:45;;;;;;;9.05;4.47;;;17.50;99.90;;;;;;5035344;28;20413;-74
2022/06/06 10:50:34;;;;;;;5.82;4.03;;;18.40;99.90;;;;;;5036878;28;20405;-74
2022/06/06 10:53:24;;;;;;;10.25;4.93;;;18.40;99.90;;;;;;5036629;28;20472;-74
2022/06/06 10:56:23;;;;;;;10.30;4.43;;;18.50;99.90;;;;;;5036529;28;20040;-74
2022/06/06 10:59:02;;;;;;;8.57;3.40;;;18.60;99.90;;;;;;5036613;28;20028;-73
2022/06/06 11:01:36;;;;;;;11.23;2.88;;;19.00;99.90;;;;;;5036274;28;20540;-74
2022/06/06 11:04:30;;;;;;;5.40;2.35;;;19.30;99.90;;;;;;5036389;28;20021;-74
2022/06/06 11:07:20;;;;;;;6.32;1.98;;;19.70;99.90;;;;;;5036787;28;20053;-74
2022/06/06 11:09:54;;;;;;;4.18;1.67;;;19.60;99.90;;;;;;5036809;28;20025;-73
2022/06/06 11:12:41;;;;;;;9.45;3.30;;;19.50;99.90;;;;;;5036292;28;20067;-73
2022/06/06 11:15:07;;;;;;;4.85;2.58;;;19.20;99.90;;;;;;5036089;28;20033;-73
2022/06/06 11:17:46;;;;;;;5.43;2.88;;;19.40;99.90;;;;;;5036028;28;20018;-72
2022/06/06 11:20:39;;;;;;;7.32;3.30;;;19.40;99.90;;;;;;5035881;28;20173;-74
2022/06/06 11:23:04;;;;;;;11.25;3.47;;;19.50;99.90;;;;;;5036341;28;20036;-73
2022/06/06 11:25:56;;;;;;;7.85;3.78;;;19.70;99.90;;;;;;5035842;28;20041;-73
2022/06/06 11:28:35;;;;;;;8.65;4.47;;;19.80;99.90;;;;;;5035807;28;20018;-73
2022/06/06 11:31:09;;;;;;;10.77;4.30;;;20.00;99.90;;;;;;5036041;28;20029;-73
2022/06/06 11:34:20;;;;;;;7.72;3.90;;;20.30;99.90;;;;;;5035845;28;20413;-73
2022/06/06 11:37:12;;;;;;;9.10;3.83;;;20.00;99.90;;;;;;5036554;28;20030;-73
2022/06/06 11:40:01;;;;;;;11.50;4.63;;;19.90;99.90;;;;;;5036168;28;20061;-74
2022/06/06 11:42:37;;;;;;;10.73;4.55;;;19.30;99.90;;;;;;5035495;28;20025;-72
2022/06/06 11:45:29;;;;;;;9.98;4.30;;;19.70;99.90;;;;;;5035246;28;20025;-71
2022/06/06 11:48:09;;;;;;;8.38;3.83;;;19.90;99.90;;;;;;5033395;28;20045;-71
2022/06/06 11:50:47;;;;;;;9.85;4.97;;;19.70;99.90;;;;;;5035553;28;20075;-72
2022/06/06 11:53:31;;;;;;;12.27;5.38;;;19.30;99.90;;;;;;5035269;28;20481;-72
2022/06/06 11:56:04;;;;;;;7.28;4.10;;;18.90;99.90;;;;;;5035054;28;20025;-72
2022/06/06 11:58:42;;;;;;;13.05;4.68;;;18.80;99.90;;;;;;5034936;28;20448;-72
2022/06/06 12:01:07;;;;;;;8.50;5.03;;;19.20;99.90;;;;;;5035115;28;20025;-71
2022/06/06 12:03:50;;;;;;;11.32;5.75;;;19.50;99.90;;;;;;5034701;28;20025;-72
2022/06/06 12:06:46;;;;;;;11.02;5.28;;;19.10;99.90;;;;;;5035119;28;20374;-72
2022/06/06 12:09:35;;;;;;;15.40;5.03;;;18.60;99.90;;;;;;5034839;28;20045;-72
2022/06/06 12:12:08;;;;;;;13.80;5.40;;;19.20;99.90;;;;;;5034691;28;20029;-72
2022/06/06 12:14:48;;;;;;;10.73;5.13;;;20.20;99.90;;;;;;5033461;28;20032;-72
2022/06/06 12:17:26;;;;;;;16.88;5.35;;;21.60;99.90;;;;;;5034900;28;20025;-73
2022/06/06 12:20:43;;;;;;;12.65;5.25;;;22.30;99.90;;;;;;5034394;28;20393;-73
2022/06/06 12:23:28;;;;;;;13.85;5.88;;;21.60;99.90;;;;;;5025538;28;20044;-73
2022/06/06 12:26:17;;;;;;;12.80;5.50;;;20.80;99.90;;;;;;5035239;28;20481;-71
2022/06/06 12:29:30;;;;;;;10.18;5.75;;;20.20;99.90;;;;;;5035025;28;20469;-71
2022/06/06 12:32:28;;;;;;;13.65;6.28;;;19.70;99.90;;;;;;5032586;28;20108;-70
2022/06/06 12:34:56;;;;;;;15.68;5.57;;;19.30;99.90;;;;;;5034656;28;20473;-71
2022/06/06 12:37:45;;;;;;;7.18;4.63;;;19.10;99.90;;;;;;5034549;28;20108;-71
2022/06/06 12:40:28;;;;;;;12.73;5.47;;;19.70;99.90;;;;;;5034502;28;20029;-71
2022/06/06 12:43:04;;;;;;;13.27;5.40;;;21.00;99.90;;;;;;5034718;28;20024;-71
2022/06/06 12:45:33;;;;;;;10.95;5.72;;;21.60;99.90;;;;;;5034405;28;20022;-71
2022/06/06 12:48:19;;;;;;;14.93;5.53;;;21.30;99.90;;;;;;5034278;28;20021;-71
2022/06/06 12:51:13;;;;;;;11.40;5.40;;;22.10;99.90;;;;;;5034459;28;20060;-71
2022/06/06 12:53:44;;;;;;;8.95;5.30;;;22.50;99.90;;;;;;5034188;28;20029;-70
2022/06/06 12:56:23;;;;;;;10.30;4.50;;;23.00;99.90;;;;;;5034036;28;20111;-70
2022/06/06 12:59:13;;;;;;;12.50;5.47;;;22.80;99.90;;;;;;5033768;28;20377;-70
2022/06/06 13:01:55;;;;;;;11.68;5.05;;;22.90;99.90;;;;;;5033633;28;20377;-70
2022/06/06 13:05:02;;;;;;;10.40;4.90;;;23.20;99.90;;;;;;5033444;28;20061;-70
2022/06/06 13:07:59;;;;;;;10.68;5.82;;;23.40;99.90;;;;;;5033697;28;20025;-70
2022/06/06 13:10:58;;;;;;;9.75;4.80;;;23.40;99.90;;;;;;5033502;28;20072;-70
2022/06/06 13:13:49;;;;;;;9.32;4.15;;;23.10;99.90;;;;;;5033847;28;20095;-70
2022/06/06 13:16:34;;;;;;;10.40;4.00;;;22.40;99.90;;;;;;5033455;28;20083;-70
2022/06/06 13:19:12;;;;;;;11.73;5.22;;;21.80;99.90;;;;;;5033390;28;20048;-71
2022/06/06 13:21:46;;;;;;;9.82;4.05;;;22.10;99.90;;;;;;5033411;28;20373;-70
2022/06/06 13:24:21;;;;;;;10.65;3.28;;;22.10;99.90;;;;;;5033725;28;20087;-70
2022/06/06 13:26:48;;;;;;;9.85;3.67;;;22.30;99.90;;;;;;5033534;28;20386;-74
2022/06/06 13:29:45;;;;;;;6.88;3.40;;;23.20;99.90;;;;;;5033303;28;20033;-74
2022/06/06 13:32:25;;;;;;;7.60;4.03;;;23.70;99.90;;;;;;5029213;28;20034;-74
2022/06/06 13:35:42;;;;;;;11.57;4.22;;;23.50;99.90;;;;;;5033601;28;20074;-74
2022/06/06 13:38:25;;;;;;;9.60;4.00;;;23.60;99.90;;;;;;5024348;28;20033;-74
2022/06/06 13:41:28;;;;;;;12.55;4.40;;;23.60;99.90;;;;;;5033517;28;20061;-75
2022/06/06 13:43:56;;;;;;;8.77;3.53;;;23.80;99.90;;;;;;5033235;28;20026;-74
2022/06/06 13:46:49;;;;;;;8.88;3.72;;;23.80;99.90;;;;;;5033482;28;20040;-75
2022/06/06 13:49:25;;;;;;;10.05;3.00;;;24.10;99.90;;;;;;5033231;28;20029;-74
2022/06/06 13:52:13;;;;;;;7.93;3.20;;;23.90;99.90;;;;;;5033522;28;20053;-74
2022/06/06 13:54:39;;;;;;;6.13;3.42;;;23.50;99.90;;;;;;5034051;28;20479;-77
2022/06/06 13:57:31;;;;;;;7.30;3.10;;;23.40;99.90;;;;;;5033934;28;20050;-77
2022/06/06 14:00:16;;;;;;;10.93;3.20;;;23.70;99.90;;;;;;5033744;28;20025;-77
2022/06/06 14:03:07;;;;;;;9.10;3.53;;;23.70;99.90;;;;;;5033897;28;20422;-77
2022/06/06 14:05:41;;;;;;;11.00;3.38;;;22.70;99.90;;;;;;5034076;28;20025;-77